Time;durP1;ratioP1;P1;durP2;ratioP2;P2;SDS_P1;SDS_P2;PMS_P1;PMS_P2;Temp;Humidity;BMP_temperature;BMP_pressure;BME280_temperature;BME280_humidity;BME280_pressure;Samples;Min_cycle;Max_cycle;Signal;HPM_P1;HPM_P2
2021/09/23 00:00:15;;;;;;;23.88;17.13;;;13.60;99.90;;;;;;5074949;28;20851;-77
2021/09/23 00:05:22;;;;;;;25.35;16.77;;;13.70;99.90;;;;;;5074481;28;20037;-77
2021/09/23 00:07:50;;;;;;;24.88;17.83;;;13.70;99.90;;;;;;5080102;28;20481;-76
2021/09/23 00:10:22;;;;;;;25.70;16.92;;;13.70;99.90;;;;;;5071051;28;20107;-77
2021/09/23 00:12:51;;;;;;;19.73;15.35;;;13.80;99.90;;;;;;5073101;28;20476;-78
2021/09/23 00:15:17;;;;;;;23.98;16.80;;;13.80;99.90;;;;;;5072378;28;20020;-76
2021/09/23 00:17:47;;;;;;;29.77;19.73;;;13.80;99.90;;;;;;5072712;28;20086;-78
2021/09/23 00:20:34;;;;;;;26.67;17.63;;;13.70;99.90;;;;;;5072084;28;20025;-76
2021/09/23 00:23:03;;;;;;;24.17;16.85;;;13.70;99.90;;;;;;5069527;28;20099;-78
2021/09/23 00:25:32;;;;;;;23.77;16.98;;;13.70;99.90;;;;;;5069642;28;20028;-78
2021/09/23 00:27:59;;;;;;;22.80;17.27;;;13.70;99.90;;;;;;5068373;28;20017;-78
2021/09/23 00:30:25;;;;;;;24.65;17.02;;;13.70;99.90;;;;;;5066156;28;20020;-78
2021/09/23 00:32:55;;;;;;;25.40;17.73;;;13.70;99.90;;;;;;5073083;28;20064;-77
2021/09/23 00:35:22;;;;;;;23.45;15.70;;;13.60;99.90;;;;;;5067655;28;20024;-77
2021/09/23 00:37:52;;;;;;;22.48;15.63;;;13.60;99.90;;;;;;5070374;28;20431;-78
2021/09/23 00:40:21;;;;;;;22.70;15.68;;;13.60;99.90;;;;;;5071130;28;20031;-78
2021/09/23 00:42:48;;;;;;;22.52;15.93;;;13.60;99.90;;;;;;5070655;28;20033;-77
2021/09/23 00:45:18;;;;;;;21.83;16.08;;;13.60;99.90;;;;;;5075132;28;20082;-76
2021/09/23 00:47:48;;;;;;;25.23;18.65;;;13.50;99.90;;;;;;5076417;28;20048;-77
2021/09/23 00:50:15;;;;;;;24.42;17.92;;;13.30;99.90;;;;;;5073039;28;20028;-77
2021/09/23 00:52:41;;;;;;;26.55;19.40;;;13.20;99.90;;;;;;5069982;28;20120;-77
2021/09/23 00:55:11;;;;;;;29.95;18.90;;;13.10;99.90;;;;;;5073063;28;20147;-78
2021/09/23 00:57:37;;;;;;;29.70;19.02;;;13.00;99.90;;;;;;5067477;28;20052;-77
2021/09/23 01:00:06;;;;;;;33.00;20.83;;;13.00;99.90;;;;;;5072414;28;20086;-77
2021/09/23 01:02:32;;;;;;;29.42;19.48;;;13.00;99.90;;;;;;5072659;28;20029;-77
2021/09/23 01:04:58;;;;;;;32.20;20.88;;;13.10;99.90;;;;;;5072050;28;20031;-77
2021/09/23 01:07:23;;;;;;;32.15;20.80;;;13.00;99.90;;;;;;5072600;28;20064;-77
2021/09/23 01:09:53;;;;;;;29.90;19.83;;;13.10;99.90;;;;;;5065103;28;20533;-77
2021/09/23 01:12:21;;;;;;;31.83;20.23;;;13.10;99.90;;;;;;5068927;28;20623;-77
2021/09/23 01:14:47;;;;;;;36.53;21.90;;;13.10;99.90;;;;;;5070136;28;20024;-77
2021/09/23 01:17:13;;;;;;;33.17;20.90;;;13.00;99.90;;;;;;5064226;28;20094;-78
2021/09/23 01:19:41;;;;;;;35.05;21.88;;;13.00;99.90;;;;;;5067206;28;20091;-77
2021/09/23 01:22:08;;;;;;;37.60;23.98;;;13.00;99.90;;;;;;5066167;28;20426;-77
2021/09/23 01:24:37;;;;;;;34.72;23.15;;;13.10;99.90;;;;;;5067336;28;20024;-78
2021/09/23 01:27:04;;;;;;;23.48;15.23;;;13.10;99.90;;;;;;5068506;28;20489;-77
2021/09/23 01:29:30;;;;;;;21.77;14.88;;;13.20;99.90;;;;;;5073384;28;20025;-77
2021/09/23 01:31:57;;;;;;;37.75;23.80;;;13.20;99.90;;;;;;5076586;28;20111;-77
2021/09/23 01:34:23;;;;;;;39.22;24.70;;;13.20;99.90;;;;;;5081663;28;20472;-77
2021/09/23 01:36:48;;;;;;;39.55;25.85;;;13.10;99.90;;;;;;5078021;28;20036;-77
2021/09/23 01:39:22;;;;;;;46.15;29.20;;;13.20;99.90;;;;;;5078169;28;20377;-77
2021/09/23 01:41:48;;;;;;;28.17;18.73;;;13.30;99.90;;;;;;5072102;28;20028;-77
2021/09/23 01:44:14;;;;;;;24.15;16.60;;;13.30;99.90;;;;;;5079572;28;20043;-77
2021/09/23 01:46:39;;;;;;;30.70;18.83;;;13.30;99.90;;;;;;5077022;28;20068;-77
2021/09/23 01:49:05;;;;;;;26.00;17.20;;;13.20;99.90;;;;;;5075997;28;20039;-77
2021/09/23 01:51:31;;;;;;;26.85;18.55;;;13.20;99.90;;;;;;5083005;28;20483;-77
2021/09/23 01:53:56;;;;;;;31.67;18.83;;;13.20;99.90;;;;;;5074169;28;20028;-77
2021/09/23 01:56:22;;;;;;;30.80;19.63;;;13.20;99.90;;;;;;5073804;28;20029;-77
2021/09/23 01:58:47;;;;;;;33.83;22.10;;;13.10;99.90;;;;;;5076969;28;20075;-77
2021/09/23 02:01:13;;;;;;;31.92;21.05;;;13.20;99.90;;;;;;5082045;28;20461;-77
2021/09/23 02:03:39;;;;;;;37.92;23.58;;;13.20;99.90;;;;;;5077635;28;20504;-77
2021/09/23 02:06:05;;;;;;;40.30;26.77;;;13.10;99.90;;;;;;5079279;28;20025;-77
2021/09/23 02:08:31;;;;;;;31.60;22.20;;;13.10;99.90;;;;;;5079484;28;20518;-78
2021/09/23 02:10:57;;;;;;;32.33;23.20;;;13.10;99.90;;;;;;5075720;28;20098;-78
2021/09/23 02:13:23;;;;;;;38.53;22.60;;;13.10;99.90;;;;;;5079153;28;20032;-77
2021/09/23 02:15:48;;;;;;;40.08;25.50;;;13.10;99.90;;;;;;5077322;28;20082;-78
2021/09/23 02:18:14;;;;;;;40.72;25.23;;;13.10;99.90;;;;;;5069735;28;20047;-77
2021/09/23 02:20:40;;;;;;;41.53;25.63;;;13.10;99.90;;;;;;5076947;28;20021;-77
2021/09/23 02:23:06;;;;;;;41.67;26.90;;;13.10;99.90;;;;;;5071484;28;20062;-77
2021/09/23 02:25:31;;;;;;;43.53;28.15;;;13.00;99.90;;;;;;5075593;28;20032;-77
2021/09/23 02:27:57;;;;;;;53.40;28.65;;;12.90;99.90;;;;;;5073781;28;20039;-77
2021/09/23 02:30:24;;;;;;;40.35;26.40;;;12.90;99.90;;;;;;5070682;28;20383;-77
2021/09/23 02:32:50;;;;;;;47.45;29.65;;;12.90;99.90;;;;;;5075780;28;20078;-77
2021/09/23 02:35:15;;;;;;;45.50;27.88;;;12.90;99.90;;;;;;5078875;28;20021;-77
2021/09/23 02:37:41;;;;;;;43.78;27.70;;;12.90;99.90;;;;;;5073722;28;20148;-77
2021/09/23 02:40:09;;;;;;;47.05;27.08;;;12.90;99.90;;;;;;5076146;28;20078;-77
2021/09/23 02:42:35;;;;;;;49.08;27.92;;;12.80;99.90;;;;;;5068751;28;20028;-77
2021/09/23 02:45:02;;;;;;;47.92;28.30;;;12.80;99.90;;;;;;5077399;28;20028;-77
2021/09/23 02:47:28;;;;;;;44.60;28.73;;;12.80;99.90;;;;;;5078168;28;20032;-77
2021/09/23 02:49:53;;;;;;;48.88;30.00;;;12.80;99.90;;;;;;5070749;28;20461;-77
2021/09/23 02:52:19;;;;;;;44.42;28.10;;;12.80;99.90;;;;;;5073576;28;20029;-77
2021/09/23 02:54:45;;;;;;;46.92;26.70;;;12.80;99.90;;;;;;5072296;28;20021;-76
2021/09/23 02:57:11;;;;;;;47.40;27.35;;;12.80;99.90;;;;;;5071946;28;20033;-77
2021/09/23 02:59:38;;;;;;;47.30;27.75;;;12.70;99.90;;;;;;5076325;28;20090;-77
2021/09/23 03:02:04;;;;;;;43.47;26.33;;;12.70;99.90;;;;;;5075341;28;20029;-77
2021/09/23 03:04:29;;;;;;;49.67;27.70;;;12.70;99.90;;;;;;5075293;28;20024;-77
2021/09/23 03:06:55;;;;;;;46.10;28.92;;;12.70;99.90;;;;;;5074745;28;20396;-76
2021/09/23 03:09:20;;;;;;;43.55;26.63;;;12.80;99.90;;;;;;5070122;28;20501;-77
2021/09/23 03:11:46;;;;;;;49.88;27.67;;;12.80;99.90;;;;;;5078441;28;20060;-77
2021/09/23 03:14:12;;;;;;;45.78;26.70;;;12.80;99.90;;;;;;5079303;28;20027;-77
2021/09/23 03:16:38;;;;;;;44.60;27.30;;;12.80;99.90;;;;;;5076870;28;20028;-76
2021/09/23 03:19:03;;;;;;;32.53;20.50;;;12.90;99.90;;;;;;5080953;28;20028;-77
2021/09/23 03:21:29;;;;;;;36.22;22.35;;;12.90;99.90;;;;;;5079245;28;20027;-77
2021/09/23 03:23:55;;;;;;;35.70;23.17;;;12.90;99.90;;;;;;5082108;28;20032;-77
2021/09/23 03:26:20;;;;;;;41.40;24.60;;;12.80;99.90;;;;;;5074638;28;20052;-76
2021/09/23 03:28:46;;;;;;;39.05;24.77;;;12.80;99.90;;;;;;5079261;28;20028;-77
2021/09/23 03:31:12;;;;;;;43.92;28.05;;;12.80;99.90;;;;;;5075354;28;20424;-76
2021/09/23 03:33:38;;;;;;;40.53;24.85;;;12.80;99.90;;;;;;5070530;28;20036;-76
2021/09/23 03:36:04;;;;;;;43.70;25.48;;;12.70;99.90;;;;;;5075992;28;20050;-76
2021/09/23 03:38:30;;;;;;;45.33;27.05;;;12.60;99.90;;;;;;5076769;28;20495;-77
2021/09/23 03:40:55;;;;;;;48.53;27.45;;;12.50;99.90;;;;;;5074775;28;20031;-76
2021/09/23 03:43:21;;;;;;;48.65;27.25;;;12.50;99.90;;;;;;5070385;28;20496;-76
2021/09/23 03:45:51;;;;;;;43.17;26.88;;;12.60;99.90;;;;;;5079250;28;20111;-77
2021/09/23 03:48:20;;;;;;;46.60;27.52;;;12.60;99.90;;;;;;5072058;28;20516;-76
2021/09/23 03:50:46;;;;;;;52.53;29.98;;;12.60;99.90;;;;;;5065617;28;20115;-76
2021/09/23 03:53:12;;;;;;;49.15;27.50;;;12.60;99.90;;;;;;5077937;28;20020;-75
2021/09/23 03:55:38;;;;;;;54.92;30.92;;;12.50;99.90;;;;;;5072313;28;20155;-77
2021/09/23 03:58:04;;;;;;;46.15;28.00;;;12.50;99.90;;;;;;5073942;28;20115;-76
2021/09/23 04:00:30;;;;;;;52.13;27.30;;;12.60;99.90;;;;;;5077745;28;20020;-76
2021/09/23 04:02:55;;;;;;;53.15;29.95;;;12.50;99.90;;;;;;5079902;28;20024;-76
2021/09/23 04:05:21;;;;;;;47.28;30.42;;;12.50;99.90;;;;;;5079317;28;20536;-78
2021/09/23 04:07:47;;;;;;;41.28;25.77;;;12.60;99.90;;;;;;5078929;28;20028;-77
2021/09/23 04:10:13;;;;;;;42.75;25.80;;;12.60;99.90;;;;;;5069894;28;20008;-76
2021/09/23 04:12:38;;;;;;;55.17;33.33;;;12.60;99.90;;;;;;5079101;28;20031;-76
2021/09/23 04:15:06;;;;;;;51.75;30.52;;;12.60;99.90;;;;;;5078536;28;20465;-76
2021/09/23 04:17:33;;;;;;;50.90;32.45;;;12.50;99.90;;;;;;5079972;28;20091;-76
2021/09/23 04:19:58;;;;;;;50.42;30.08;;;12.50;99.90;;;;;;5076668;28;20077;-76
2021/09/23 04:22:24;;;;;;;52.20;33.33;;;12.50;99.90;;;;;;5069430;28;20020;-76
2021/09/23 04:24:50;;;;;;;56.45;31.77;;;12.50;99.90;;;;;;5077276;28;20492;-76
2021/09/23 04:27:16;;;;;;;58.47;33.83;;;12.50;99.90;;;;;;5073926;28;20029;-76
2021/09/23 04:29:43;;;;;;;59.38;32.33;;;12.50;99.90;;;;;;5079633;28;20442;-76
2021/09/23 04:32:10;;;;;;;49.92;30.98;;;12.40;99.90;;;;;;5075394;28;20036;-76
2021/09/23 04:34:36;;;;;;;49.78;32.08;;;12.40;99.90;;;;;;5080249;28;20021;-76
2021/09/23 04:37:03;;;;;;;55.75;32.10;;;12.30;99.90;;;;;;5076344;28;20036;-76
2021/09/23 04:39:28;;;;;;;49.97;31.35;;;12.30;99.90;;;;;;5078395;28;20417;-76
2021/09/23 04:41:54;;;;;;;50.28;30.38;;;12.30;99.90;;;;;;5071024;28;20031;-75
2021/09/23 04:44:20;;;;;;;49.13;28.77;;;12.30;99.90;;;;;;5076585;28;20021;-76
2021/09/23 04:46:45;;;;;;;44.65;27.98;;;12.30;99.90;;;;;;5071888;28;20536;-75
2021/09/23 04:49:11;;;;;;;53.83;28.98;;;12.30;99.90;;;;;;5078794;28;20035;-76
2021/09/23 04:51:37;;;;;;;50.10;30.40;;;12.30;99.90;;;;;;5080628;28;20024;-76
2021/09/23 04:54:03;;;;;;;50.28;29.23;;;12.30;99.90;;;;;;5077000;28;20035;-76
2021/09/23 04:56:30;;;;;;;45.15;27.70;;;12.40;99.90;;;;;;5084462;28;20465;-77
2021/09/23 04:58:56;;;;;;;47.60;26.00;;;12.40;99.90;;;;;;5073257;28;20040;-77
2021/09/23 05:01:21;;;;;;;53.42;27.58;;;12.50;99.90;;;;;;5075720;28;20499;-77
2021/09/23 05:03:47;;;;;;;48.63;26.42;;;12.50;99.90;;;;;;5071163;28;20115;-76
2021/09/23 05:06:13;;;;;;;42.97;26.20;;;12.40;99.90;;;;;;5077835;28;20099;-76
2021/09/23 05:08:39;;;;;;;44.80;26.35;;;12.40;99.90;;;;;;5082489;28;20047;-76
2021/09/23 05:11:05;;;;;;;51.15;26.88;;;12.30;99.90;;;;;;5078920;28;20178;-76
2021/09/23 05:13:31;;;;;;;48.10;26.48;;;12.30;99.90;;;;;;5080777;28;20033;-77
2021/09/23 05:15:57;;;;;;;49.17;27.85;;;12.40;99.90;;;;;;5079946;28;20407;-80
2021/09/23 05:18:23;;;;;;;48.10;27.88;;;12.40;99.90;;;;;;5073877;28;20049;-80
2021/09/23 05:20:48;;;;;;;49.72;27.42;;;12.30;99.90;;;;;;5078986;28;20052;-80
2021/09/23 05:23:14;;;;;;;48.17;26.88;;;12.30;99.90;;;;;;5077457;28;20028;-80
2021/09/23 05:25:39;;;;;;;55.22;28.90;;;12.30;99.90;;;;;;5080446;28;20064;-80
2021/09/23 05:28:05;;;;;;;45.13;27.17;;;12.30;99.90;;;;;;5080689;28;20111;-80
2021/09/23 05:30:33;;;;;;;49.35;27.27;;;12.30;99.90;;;;;;5079065;28;20044;-80
2021/09/23 05:32:58;;;;;;;48.95;27.27;;;12.30;99.90;;;;;;5077381;28;20074;-80
2021/09/23 05:35:24;;;;;;;47.00;26.73;;;12.20;99.90;;;;;;5077675;28;20028;-80
2021/09/23 05:37:50;;;;;;;44.67;25.75;;;12.30;99.90;;;;;;5074001;28;20063;-79
2021/09/23 05:40:15;;;;;;;44.92;26.10;;;12.30;99.90;;;;;;5075992;28;20108;-78
2021/09/23 05:42:41;;;;;;;44.17;25.70;;;12.30;99.90;;;;;;5079222;28;20028;-80
2021/09/23 05:45:10;;;;;;;46.15;26.45;;;12.30;99.90;;;;;;5075308;28;20437;-80
2021/09/23 05:47:38;;;;;;;41.35;23.73;;;12.30;99.90;;;;;;5071980;28;20493;-79
2021/09/23 05:50:04;;;;;;;42.58;27.08;;;12.40;99.90;;;;;;5070328;28;20456;-78
2021/09/23 05:52:30;;;;;;;41.20;24.50;;;12.40;99.90;;;;;;5079186;28;20031;-80
2021/09/23 05:54:56;;;;;;;46.80;27.25;;;12.40;99.90;;;;;;5080844;28;20024;-80
2021/09/23 05:57:32;;;;;;;45.05;25.55;;;12.40;99.90;;;;;;5068652;28;20058;-81
2021/09/23 05:59:58;;;;;;;37.22;22.80;;;12.40;99.90;;;;;;5072947;28;20025;-80
2021/09/23 06:02:24;;;;;;;44.17;25.75;;;12.50;99.90;;;;;;5067264;28;20040;-80
2021/09/23 06:04:50;;;;;;;45.05;25.55;;;12.40;99.90;;;;;;5072293;28;20021;-80
2021/09/23 06:07:16;;;;;;;41.97;25.13;;;12.40;99.90;;;;;;5070850;28;20066;-80
2021/09/23 06:09:42;;;;;;;45.78;25.67;;;12.40;99.90;;;;;;5068308;28;20077;-80
2021/09/23 06:12:08;;;;;;;43.95;26.85;;;12.40;99.90;;;;;;5069788;28;20450;-80
2021/09/23 06:14:33;;;;;;;43.88;25.17;;;12.40;99.90;;;;;;5068180;28;20027;-80
2021/09/23 06:16:59;;;;;;;42.03;25.17;;;12.40;99.90;;;;;;5068740;28;20035;-80
2021/09/23 06:19:24;;;;;;;45.13;24.13;;;12.40;99.90;;;;;;5070315;28;20062;-80
2021/09/23 06:21:50;;;;;;;41.40;24.55;;;12.40;99.90;;;;;;5068124;28;20027;-78
2021/09/23 06:24:16;;;;;;;39.22;23.58;;;12.50;99.90;;;;;;5070849;28;20020;-80
2021/09/23 06:26:41;;;;;;;44.70;25.70;;;12.40;99.90;;;;;;5069500;28;20466;-80
2021/09/23 06:29:07;;;;;;;41.67;26.15;;;12.40;99.90;;;;;;5068080;28;20535;-76
2021/09/23 06:31:35;;;;;;;50.10;26.73;;;12.40;99.90;;;;;;5071742;28;20036;-80
2021/09/23 06:34:01;;;;;;;43.22;24.55;;;12.40;99.90;;;;;;5071514;28;20028;-80
2021/09/23 06:36:27;;;;;;;43.45;23.90;;;12.50;99.90;;;;;;5069417;28;20510;-80
2021/09/23 06:38:52;;;;;;;43.17;24.65;;;12.50;99.90;;;;;;5062884;28;20119;-79
2021/09/23 06:41:18;;;;;;;47.78;25.75;;;12.50;99.90;;;;;;5072820;28;20085;-79
2021/09/23 06:43:45;;;;;;;37.75;23.67;;;12.50;99.90;;;;;;5071664;28;20052;-80
2021/09/23 06:46:12;;;;;;;40.17;23.00;;;12.60;99.90;;;;;;5076444;28;20017;-80
2021/09/23 06:48:38;;;;;;;40.60;22.98;;;12.70;99.90;;;;;;5070884;28;20055;-80
2021/09/23 06:51:04;;;;;;;37.92;22.48;;;12.70;99.90;;;;;;5073081;28;20051;-79
2021/09/23 06:53:30;;;;;;;44.80;24.10;;;12.70;99.90;;;;;;5073694;28;20052;-79
2021/09/23 06:55:55;;;;;;;37.42;20.35;;;12.70;99.90;;;;;;5071945;28;20031;-79
2021/09/23 06:58:21;;;;;;;41.38;23.90;;;12.80;99.90;;;;;;5074332;28;20041;-79
2021/09/23 07:00:47;;;;;;;39.78;23.00;;;12.70;99.90;;;;;;5074116;28;20543;-78
2021/09/23 07:03:12;;;;;;;42.35;24.92;;;12.80;99.90;;;;;;5085291;28;20039;-79
2021/09/23 07:05:42;;;;;;;37.83;21.35;;;12.90;99.90;;;;;;5068221;28;20023;-77
2021/09/23 07:08:08;;;;;;;47.20;22.88;;;12.90;99.90;;;;;;5073723;28;20549;-78
2021/09/23 07:10:34;;;;;;;41.70;23.80;;;13.00;99.90;;;;;;5062151;28;20024;-78
2021/09/23 07:13:00;;;;;;;43.53;24.20;;;13.00;99.90;;;;;;5071239;28;20077;-76
2021/09/23 07:15:25;;;;;;;41.88;22.48;;;13.10;99.90;;;;;;5078536;28;20457;-76
2021/09/23 07:17:51;;;;;;;41.17;24.90;;;13.20;99.90;;;;;;5073363;28;20047;-76
2021/09/23 07:20:17;;;;;;;41.30;24.65;;;13.30;99.90;;;;;;5075584;28;20341;-76
2021/09/23 07:22:42;;;;;;;41.25;22.30;;;13.40;99.90;;;;;;5076576;28;20076;-76
2021/09/23 07:25:09;;;;;;;39.00;22.15;;;13.50;99.90;;;;;;5069609;28;20112;-76
2021/09/23 07:27:34;;;;;;;38.97;23.17;;;13.50;99.90;;;;;;5076219;28;20370;-76
2021/09/23 07:30:00;;;;;;;38.25;22.08;;;13.60;99.90;;;;;;5069041;28;20037;-76
2021/09/23 07:32:25;;;;;;;45.05;27.33;;;13.70;99.90;;;;;;5079504;28;20031;-76
2021/09/23 07:34:51;;;;;;;41.53;25.33;;;13.70;99.90;;;;;;5074044;28;20034;-76
2021/09/23 07:37:17;;;;;;;43.25;28.17;;;13.80;99.90;;;;;;5071397;28;20098;-76
2021/09/23 07:39:43;;;;;;;42.63;27.10;;;13.90;99.90;;;;;;5043764;28;20029;-77
2021/09/23 07:42:09;;;;;;;44.63;27.98;;;13.90;99.90;;;;;;5067633;28;20025;-76
2021/09/23 07:44:36;;;;;;;45.33;26.83;;;14.00;99.90;;;;;;5070388;28;20033;-76
2021/09/23 07:47:02;;;;;;;38.25;24.27;;;14.20;99.90;;;;;;5063669;28;20013;-76
2021/09/23 07:49:28;;;;;;;38.58;24.88;;;14.30;99.90;;;;;;5074180;28;20024;-76
2021/09/23 07:51:54;;;;;;;39.30;23.48;;;14.30;99.90;;;;;;5073300;28;20074;-77
2021/09/23 07:54:19;;;;;;;44.60;25.70;;;14.40;99.90;;;;;;5073202;28;20020;-77
2021/09/23 07:56:45;;;;;;;45.10;26.45;;;14.50;99.90;;;;;;5068343;28;20031;-76
2021/09/23 07:59:11;;;;;;;40.15;26.67;;;14.60;99.90;;;;;;5077291;28;20035;-76
2021/09/23 08:01:37;;;;;;;46.20;26.05;;;14.70;99.90;;;;;;5076152;28;20392;-75
2021/09/23 08:04:03;;;;;;;40.72;23.60;;;14.70;99.90;;;;;;5078562;28;20029;-76
2021/09/23 08:06:29;;;;;;;40.20;24.50;;;14.80;99.90;;;;;;5083915;28;20020;-75
2021/09/23 08:08:57;;;;;;;42.08;26.63;;;14.90;99.90;;;;;;5073164;28;20031;-77
2021/09/23 08:11:23;;;;;;;39.63;26.08;;;15.00;99.90;;;;;;5079365;28;20035;-79
2021/09/23 08:13:50;;;;;;;36.20;24.00;;;15.10;99.90;;;;;;5070304;28;20024;-79
2021/09/23 08:16:16;;;;;;;44.80;25.15;;;15.10;99.90;;;;;;5074142;28;20021;-78
2021/09/23 08:18:42;;;;;;;39.33;25.90;;;15.30;99.90;;;;;;5068711;28;20048;-78
2021/09/23 08:21:08;;;;;;;44.00;26.45;;;15.30;99.90;;;;;;5071207;28;20028;-78
2021/09/23 08:23:33;;;;;;;41.13;24.88;;;15.40;99.90;;;;;;5071160;28;20051;-79
2021/09/23 08:25:59;;;;;;;42.70;26.48;;;15.60;99.90;;;;;;5074660;28;20492;-78
2021/09/23 08:28:29;;;;;;;43.92;27.08;;;15.60;99.90;;;;;;5066129;28;20037;-78
2021/09/23 08:30:56;;;;;;;36.38;25.40;;;15.70;99.90;;;;;;5070786;28;20107;-81
2021/09/23 08:33:23;;;;;;;39.15;24.13;;;15.80;99.90;;;;;;5066207;28;20028;-81
2021/09/23 08:35:48;;;;;;;41.45;26.88;;;15.90;99.90;;;;;;5069766;28;20052;-80
2021/09/23 08:38:19;;;;;;;45.00;28.38;;;16.00;99.90;;;;;;5077840;28;20063;-80
2021/09/23 08:40:49;;;;;;;41.13;25.95;;;16.00;99.90;;;;;;5069402;28;20032;-81
2021/09/23 08:43:15;;;;;;;38.40;25.80;;;16.10;99.90;;;;;;5069592;28;20086;-77
2021/09/23 08:45:41;;;;;;;40.30;25.42;;;16.10;99.90;;;;;;5073727;28;20381;-77
2021/09/23 08:48:08;;;;;;;46.17;25.80;;;16.30;99.90;;;;;;5072405;28;20064;-79
2021/09/23 08:50:35;;;;;;;41.30;24.20;;;16.30;99.90;;;;;;5077525;28;20032;-78
2021/09/23 08:53:00;;;;;;;34.85;23.10;;;16.50;99.90;;;;;;5076113;28;20083;-78
2021/09/23 08:55:28;;;;;;;40.80;25.60;;;16.50;99.90;;;;;;5071554;28;20024;-78
2021/09/23 08:57:55;;;;;;;41.33;25.33;;;16.60;99.90;;;;;;5071648;28;20086;-77
2021/09/23 09:00:21;;;;;;;36.60;23.23;;;16.70;99.90;;;;;;5068388;28;20550;-78
2021/09/23 09:03:03;;;;;;;39.70;23.48;;;16.80;99.90;;;;;;5074199;28;20036;-77
2021/09/23 09:05:30;;;;;;;37.28;24.45;;;16.80;99.90;;;;;;5069978;28;20467;-78
2021/09/23 09:08:06;;;;;;;36.65;23.83;;;17.00;99.90;;;;;;5069411;28;20027;-77
2021/09/23 09:10:33;;;;;;;35.13;21.85;;;17.10;99.90;;;;;;5073299;28;20442;-78
2021/09/23 09:13:06;;;;;;;37.83;22.30;;;17.20;99.90;;;;;;5073010;28;20453;-78
2021/09/23 09:15:41;;;;;;;33.47;21.40;;;17.20;99.90;;;;;;5080193;28;20035;-78
2021/09/23 09:18:17;;;;;;;29.55;20.27;;;17.40;99.90;;;;;;5075953;28;20052;-79
2021/09/23 09:20:57;;;;;;;31.88;19.58;;;17.50;99.90;;;;;;5075226;28;20020;-78
2021/09/23 09:23:25;;;;;;;35.28;21.23;;;17.60;99.90;;;;;;5079812;28;20074;-78
2021/09/23 09:25:52;;;;;;;33.70;21.60;;;17.60;99.90;;;;;;5074972;28;20041;-78
2021/09/23 09:28:21;;;;;;;32.13;20.85;;;17.70;99.90;;;;;;5072266;28;20052;-77
2021/09/23 09:30:58;;;;;;;30.67;21.60;;;17.90;99.90;;;;;;5077308;28;20032;-78
2021/09/23 09:33:37;;;;;;;32.90;20.95;;;18.10;99.90;;;;;;5080509;28;20028;-78
2021/09/23 09:36:05;;;;;;;29.08;18.60;;;18.20;99.90;;;;;;5079430;28;20037;-77
2021/09/23 09:38:32;;;;;;;28.20;18.95;;;18.40;99.90;;;;;;5081840;28;20044;-78
2021/09/23 09:41:02;;;;;;;28.67;18.13;;;18.50;99.90;;;;;;5074977;28;20437;-77
2021/09/23 09:43:31;;;;;;;27.40;17.27;;;18.60;99.90;;;;;;5084765;28;20051;-77
2021/09/23 09:45:57;;;;;;;26.45;16.88;;;18.70;99.90;;;;;;5075884;28;20025;-78
2021/09/23 09:48:30;;;;;;;22.85;15.10;;;18.80;99.90;;;;;;5092518;28;20966;-77
2021/09/23 09:51:01;;;;;;;27.30;15.57;;;18.90;99.90;;;;;;5068743;28;20036;-77
2021/09/23 09:53:28;;;;;;;25.83;14.93;;;19.00;99.90;;;;;;5078942;28;20024;-77
2021/09/23 09:55:54;;;;;;;26.73;13.45;;;19.10;99.90;;;;;;5079080;28;20387;-77
2021/09/23 09:58:24;;;;;;;29.08;14.10;;;19.10;99.90;;;;;;5068147;28;20072;-77
2021/09/23 10:00:49;;;;;;;24.48;13.00;;;19.30;99.90;;;;;;5070749;28;20021;-77
2021/09/23 10:03:18;;;;;;;27.30;13.40;;;19.50;99.90;;;;;;5071504;28;20029;-77
2021/09/23 10:05:44;;;;;;;26.42;12.63;;;19.80;99.90;;;;;;5093800;28;20572;-77
2021/09/23 10:08:12;;;;;;;25.42;12.38;;;19.90;99.90;;;;;;5076706;28;20565;-77
2021/09/23 10:10:39;;;;;;;28.13;13.55;;;20.00;99.90;;;;;;5074207;28;20020;-77
2021/09/23 10:13:07;;;;;;;32.70;12.65;;;20.00;99.90;;;;;;5071521;28;20481;-77
2021/09/23 10:15:33;;;;;;;28.23;13.88;;;20.10;99.90;;;;;;5066627;28;20135;-77
2021/09/23 10:18:03;;;;;;;23.67;13.05;;;20.20;99.90;;;;;;5072964;28;20111;-78
2021/09/23 10:20:30;;;;;;;24.55;12.45;;;20.30;99.90;;;;;;5066597;28;20024;-77
2021/09/23 10:22:56;;;;;;;28.73;13.35;;;20.50;99.90;;;;;;5065884;28;20021;-77
2021/09/23 10:25:26;;;;;;;22.15;11.70;;;20.50;99.90;;;;;;5066982;28;20543;-77
2021/09/23 10:28:00;;;;;;;21.27;12.63;;;20.60;99.90;;;;;;5079989;28;20033;-77
2021/09/23 10:30:41;;;;;;;28.13;11.95;;;20.50;99.90;;;;;;5075747;28;20012;-77
2021/09/23 10:33:07;;;;;;;20.05;11.43;;;20.50;99.90;;;;;;5074782;28;20036;-77
2021/09/23 10:35:33;;;;;;;23.65;12.93;;;20.40;99.90;;;;;;5072376;28;20048;-76
2021/09/23 10:38:02;;;;;;;22.50;11.52;;;20.40;99.90;;;;;;5072587;28;20058;-77
2021/09/23 10:40:29;;;;;;;21.65;10.88;;;20.50;99.90;;;;;;5073487;28;20377;-77
2021/09/23 10:43:03;;;;;;;21.48;11.18;;;20.70;99.90;;;;;;5067064;28;20025;-75
2021/09/23 10:45:29;;;;;;;19.20;10.30;;;20.90;99.90;;;;;;5072478;28;20021;-75
2021/09/23 10:48:01;;;;;;;16.80;10.88;;;21.10;99.90;;;;;;5070524;28;20706;-75
2021/09/23 10:50:30;;;;;;;30.48;12.63;;;21.10;99.90;;;;;;5072241;28;20571;-75
2021/09/23 10:52:57;;;;;;;20.65;12.40;;;21.10;99.90;;;;;;5065563;28;20063;-74
2021/09/23 10:55:25;;;;;;;21.05;11.23;;;20.90;99.90;;;;;;5068842;28;20033;-75
2021/09/23 10:57:53;;;;;;;15.20;10.30;;;21.10;99.90;;;;;;5063249;28;20047;-75
2021/09/23 11:00:27;;;;;;;19.58;11.80;;;21.30;99.90;;;;;;5076495;28;20047;-77
2021/09/23 11:02:56;;;;;;;14.05;10.73;;;21.40;99.90;;;;;;5075861;28;20082;-75
2021/09/23 11:05:23;;;;;;;15.02;9.60;;;21.30;99.90;;;;;;5072746;28;20423;-75
2021/09/23 11:07:51;;;;;;;15.02;9.38;;;21.40;99.90;;;;;;5075373;28;20469;-75
2021/09/23 11:10:24;;;;;;;15.35;9.43;;;21.50;99.90;;;;;;5072344;28;20023;-75
2021/09/23 11:12:55;;;;;;;19.38;9.18;;;21.60;99.90;;;;;;5069471;28;20020;-75
2021/09/23 11:15:25;;;;;;;13.63;8.93;;;21.40;99.90;;;;;;5072631;28;20021;-75
2021/09/23 11:17:53;;;;;;;13.15;9.13;;;21.40;99.90;;;;;;5076581;28;20098;-75
2021/09/23 11:20:27;;;;;;;17.10;8.57;;;21.30;99.90;;;;;;5075676;28;20024;-76
2021/09/23 11:22:59;;;;;;;13.95;9.50;;;21.40;99.90;;;;;;5069913;28;20066;-75
2021/09/23 11:25:28;;;;;;;13.32;9.00;;;21.40;99.90;;;;;;5078808;28;20458;-76
2021/09/23 11:27:55;;;;;;;14.20;8.95;;;21.60;99.90;;;;;;5074954;28;20028;-76
2021/09/23 11:30:25;;;;;;;14.88;9.25;;;21.70;99.90;;;;;;5081726;28;20027;-75
2021/09/23 11:32:57;;;;;;;14.82;8.07;;;21.80;99.90;;;;;;5074978;28;20502;-75
2021/09/23 11:35:28;;;;;;;16.10;9.13;;;21.90;99.90;;;;;;5075789;28;20413;-75
2021/09/23 11:37:55;;;;;;;13.35;9.85;;;22.00;99.90;;;;;;5070160;28;20055;-75
2021/09/23 11:40:29;;;;;;;16.60;9.65;;;21.90;99.90;;;;;;5070793;28;20527;-75
2021/09/23 11:42:56;;;;;;;17.13;10.48;;;22.00;99.90;;;;;;5078415;28;20020;-77
2021/09/23 11:45:27;;;;;;;14.43;9.85;;;22.10;99.90;;;;;;5069185;28;20418;-76
2021/09/23 11:48:00;;;;;;;19.50;10.48;;;22.20;99.90;;;;;;5074793;28;20050;-78
2021/09/23 11:50:28;;;;;;;12.98;7.85;;;22.20;99.90;;;;;;5070967;28;20024;-77
2021/09/23 11:53:12;;;;;;;17.27;11.25;;;22.30;99.90;;;;;;5067092;28;20032;-74
2021/09/23 11:55:41;;;;;;;17.15;10.30;;;22.00;99.90;;;;;;5071183;28;20029;-75
2021/09/23 11:58:15;;;;;;;13.40;9.52;;;22.10;99.90;;;;;;5064792;28;20051;-75
2021/09/23 12:00:46;;;;;;;17.00;11.75;;;22.20;99.90;;;;;;5067928;28;20044;-74
2021/09/23 12:03:13;;;;;;;19.25;11.50;;;22.20;99.90;;;;;;5086272;28;20016;-74
2021/09/23 12:05:39;;;;;;;19.85;11.30;;;21.90;99.90;;;;;;5074523;28;20078;-75
2021/09/23 12:08:14;;;;;;;15.52;11.52;;;21.80;99.90;;;;;;5065836;28;20047;-75
2021/09/23 12:10:52;;;;;;;12.57;10.52;;;21.80;99.90;;;;;;5068773;28;20024;-75
2021/09/23 12:13:36;;;;;;;16.55;10.23;;;21.90;99.90;;;;;;5068148;28;20101;-75
2021/09/23 12:16:05;;;;;;;16.60;10.73;;;21.80;99.90;;;;;;5062655;28;20029;-77
2021/09/23 12:18:32;;;;;;;19.42;10.55;;;21.60;99.90;;;;;;5065104;28;20515;-75
2021/09/23 12:21:19;;;;;;;12.13;9.68;;;21.70;99.90;;;;;;5065313;28;20036;-75
2021/09/23 12:23:46;;;;;;;24.17;11.85;;;21.70;99.90;;;;;;5063974;28;20024;-76
2021/09/23 12:26:24;;;;;;;17.05;11.10;;;21.80;99.90;;;;;;5072262;28;20039;-75
2021/09/23 12:28:55;;;;;;;19.67;13.35;;;21.80;99.90;;;;;;5063708;28;20108;-76
2021/09/23 12:32:03;;;;;;;18.33;12.88;;;21.70;99.90;;;;;;5065920;28;20025;-76